createdAt,value
2023-01-04T00:01:25.587Z,86.57
2023-01-04T00:08:17.033Z,55.67
2023-01-04T00:10:19.144Z,41.93
2023-01-04T00:12:21.089Z,41.83
2023-01-04T00:14:23.054Z,39.43
2023-01-04T00:16:28.086Z,35.10
2023-01-04T00:18:31.537Z,35.53
2023-01-04T00:20:34.023Z,43.63
2023-01-04T00:22:37.005Z,36.47
2023-01-04T00:24:39.201Z,38.13
2023-01-04T00:26:42.159Z,33.93
2023-01-04T00:28:49.988Z,33.20
2023-01-04T00:30:55.988Z,28.47
2023-01-04T00:32:59.059Z,31.83
2023-01-04T00:35:01.350Z,33.43
2023-01-04T00:37:03.538Z,32.73
2023-01-04T00:39:10.305Z,33.50
2023-01-04T00:41:41.999Z,32.40
2023-01-04T00:43:35.816Z,31.97
2023-01-04T00:45:38.389Z,35.70
2023-01-04T00:47:40.635Z,45.07
2023-01-04T00:49:42.972Z,41.90
2023-01-04T00:51:45.194Z,37.03
2023-01-04T00:53:47.299Z,41.83
2023-01-04T00:55:50.159Z,41.57
2023-01-04T00:57:52.447Z,38.80
2023-01-04T00:59:54.481Z,38.50
2023-01-04T01:01:56.922Z,37.47
2023-01-04T01:04:02.641Z,38.63
2023-01-04T01:06:07.256Z,41.00
2023-01-04T01:08:26.136Z,42.37
2023-01-04T01:10:28.706Z,50.17
2023-01-04T01:12:31.123Z,49.83
2023-01-04T01:14:33.591Z,49.27
2023-01-04T01:16:54.213Z,49.63
2023-01-04T01:18:57.825Z,48.23
2023-01-04T01:21:00.329Z,46.70
2023-01-04T01:23:02.601Z,40.43
2023-01-04T01:25:05.307Z,37.53
2023-01-04T01:27:07.587Z,37.73
2023-01-04T01:29:09.729Z,60.33
2023-01-04T01:31:15.846Z,66.60
2023-01-04T01:33:18.108Z,67.33
2023-01-04T01:35:22.180Z,70.90
2023-01-04T01:37:24.265Z,73.77
2023-01-04T01:39:26.378Z,76.23
2023-01-04T01:41:31.091Z,72.77
2023-01-04T01:43:57.626Z,66.67
2023-01-04T01:45:59.815Z,82.30
2023-01-04T01:48:07.431Z,78.20
2023-01-04T01:50:26.144Z,63.07
2023-01-04T01:52:33.143Z,64.63
2023-01-04T01:54:46.546Z,63.10
2023-01-04T01:56:51.554Z,57.73
2023-01-04T01:58:59.232Z,53.63
2023-01-04T02:01:02.137Z,43.93
2023-01-04T02:03:36.265Z,42.03
2023-01-04T02:05:39.331Z,38.73
2023-01-04T02:07:42.263Z,37.93
2023-01-04T02:09:45.548Z,37.23
2023-01-04T02:11:47.701Z,41.70
2023-01-04T02:14:09.392Z,41.87
2023-01-04T02:16:20.617Z,39.73
2023-01-04T02:18:33.621Z,33.37
2023-01-04T02:20:44.971Z,32.80
2023-01-04T02:23:44.120Z,37.43
2023-01-04T02:25:58.109Z,41.53
2023-01-04T02:28:29.889Z,38.33
2023-01-04T02:30:44.371Z,42.07
2023-01-04T02:33:08.182Z,44.23
2023-01-04T02:35:25.829Z,51.97
2023-01-04T02:37:52.152Z,41.97
2023-01-04T02:40:03.057Z,43.83
2023-01-04T02:42:10.899Z,38.33
2023-01-04T02:44:40.074Z,34.90
2023-01-04T02:46:50.920Z,36.83
2023-01-04T02:49:17.048Z,33.57
2023-01-04T02:51:34.917Z,27.80
2023-01-04T02:53:40.269Z,30.90
2023-01-04T02:55:48.184Z,34.90
2023-01-04T02:58:08.135Z,38.27
2023-01-04T03:01:07.926Z,34.53
2023-01-04T03:03:47.115Z,45.80
2023-01-04T03:06:16.817Z,47.00
2023-01-04T03:08:44.113Z,39.90
2023-01-04T03:11:31.441Z,34.90
2023-01-04T03:13:42.842Z,38.53
2023-01-04T03:15:52.865Z,38.43
2023-01-04T03:17:58.958Z,40.50
2023-01-04T03:20:01.912Z,45.47
2023-01-04T03:22:06.254Z,40.03
2023-01-04T03:24:29.221Z,43.30
2023-01-04T03:26:54.980Z,38.13
2023-01-04T03:29:22.787Z,45.63
2023-01-04T03:31:53.372Z,45.83
2023-01-04T03:34:14.411Z,40.80
2023-01-04T03:36:43.966Z,41.67
2023-01-04T03:39:20.501Z,56.50
2023-01-04T03:42:06.529Z,48.43
2023-01-04T03:44:39.223Z,53.73
2023-01-04T03:47:15.347Z,126.10
2023-01-04T03:49:23.666Z,89.77
2023-01-04T03:51:36.101Z,67.93
2023-01-04T03:53:56.151Z,63.50
2023-01-04T03:56:00.161Z,72.23
2023-01-04T03:58:05.547Z,57.67
2023-01-04T04:00:14.970Z,58.23
2023-01-04T04:02:22.697Z,48.20
2023-01-04T04:04:43.545Z,45.07
2023-01-04T04:07:03.975Z,41.03
2023-01-04T04:09:08.040Z,41.40
2023-01-04T04:11:29.078Z,41.60
2023-01-04T04:13:34.178Z,43.17
2023-01-04T04:15:37.029Z,49.17
2023-01-04T04:17:39.444Z,57.00
2023-01-04T04:19:41.611Z,63.27
2023-01-04T04:21:43.987Z,63.87
2023-01-04T04:23:46.583Z,53.60
2023-01-04T04:25:51.953Z,49.80
2023-01-04T04:27:54.325Z,45.60
2023-01-04T04:29:57.096Z,48.90
2023-01-04T04:31:59.651Z,58.90
2023-01-04T04:34:02.232Z,49.73
2023-01-04T04:36:05.155Z,57.07
2023-01-04T04:38:07.491Z,66.60
2023-01-04T04:40:30.632Z,56.63
2023-01-04T04:42:32.767Z,55.73
2023-01-04T04:44:35.709Z,58.37
2023-01-04T04:46:38.718Z,54.60
2023-01-04T04:48:41.593Z,55.17
2023-01-04T04:50:43.958Z,55.50
2023-01-04T04:52:50.976Z,74.27
2023-01-04T04:54:56.483Z,62.77
2023-01-04T04:56:58.671Z,60.40
2023-01-04T04:59:01.167Z,60.00
2023-01-04T05:01:03.565Z,58.10
2023-01-04T05:03:05.956Z,55.13
2023-01-04T05:05:08.768Z,52.43
2023-01-04T05:07:12.757Z,61.50
2023-01-04T05:09:15.538Z,50.07
2023-01-04T05:11:37.983Z,50.30
2023-01-04T05:13:40.508Z,52.73
2023-01-04T05:15:48.367Z,51.97
2023-01-04T05:17:50.766Z,54.97
2023-01-04T05:19:52.977Z,49.80
2023-01-04T05:21:55.092Z,50.63
2023-01-04T05:23:57.315Z,53.87
2023-01-04T05:26:02.129Z,50.30
2023-01-04T05:28:04.704Z,56.07
2023-01-04T05:30:25.781Z,58.73
2023-01-04T05:32:28.160Z,67.83
2023-01-04T05:34:30.706Z,67.20
2023-01-04T05:36:32.968Z,78.70
2023-01-04T05:38:38.876Z,84.93
2023-01-04T05:40:41.500Z,79.73
2023-01-04T05:42:44.188Z,77.67
2023-01-04T05:44:46.468Z,73.17
2023-01-04T05:46:48.664Z,78.63
2023-01-04T05:48:51.199Z,89.47
2023-01-04T05:50:53.941Z,93.43
2023-01-04T05:53:21.746Z,85.80
2023-01-04T05:55:24.416Z,64.67
2023-01-04T05:57:27.173Z,59.03
2023-01-04T05:59:29.356Z,61.87
2023-01-04T06:01:32.208Z,55.67
2023-01-04T06:03:34.779Z,53.70
2023-01-04T06:05:37.447Z,53.90
2023-01-04T06:07:40.937Z,50.43
2023-01-04T06:09:43.545Z,50.30
2023-01-04T06:11:46.027Z,47.23
2023-01-04T06:13:48.366Z,48.87
2023-01-04T06:15:50.965Z,45.10
2023-01-04T06:17:53.224Z,46.67
2023-01-04T06:19:55.681Z,44.53
2023-01-04T06:21:58.578Z,44.13
2023-01-04T06:24:01.156Z,43.23
2023-01-04T06:26:03.326Z,40.93
2023-01-04T06:28:08.325Z,40.43
2023-01-04T06:30:13.695Z,36.53
2023-01-04T06:32:16.208Z,35.27
2023-01-04T06:34:18.466Z,37.10
2023-01-04T06:36:21.036Z,34.07
2023-01-04T06:38:23.458Z,34.10
2023-01-04T06:40:26.047Z,38.90
2023-01-04T06:42:46.465Z,27.70
2023-01-04T06:44:48.888Z,37.40
2023-01-04T06:46:51.462Z,40.37
2023-01-04T06:48:55.288Z,38.27
2023-01-04T06:51:00.135Z,40.40
2023-01-04T06:53:02.410Z,39.60
2023-01-04T06:55:06.085Z,33.43
2023-01-04T06:57:08.663Z,34.80
2023-01-04T06:59:11.420Z,31.20
2023-01-04T07:01:13.784Z,33.50
2023-01-04T07:03:16.550Z,29.87
2023-01-04T07:05:19.172Z,30.70
2023-01-04T07:07:24.253Z,26.23
2023-01-04T07:09:26.737Z,26.00
2023-01-04T07:11:29.052Z,27.77
2023-01-04T07:13:31.688Z,24.13
2023-01-04T07:15:39.220Z,27.37
2023-01-04T07:17:42.788Z,26.53
2023-01-04T07:19:45.131Z,27.70
2023-01-04T07:21:47.356Z,25.40
2023-01-04T07:23:49.569Z,23.57
2023-01-04T07:25:55.047Z,24.30
2023-01-04T07:27:57.507Z,23.17
2023-01-04T07:29:59.705Z,22.10
2023-01-04T07:32:02.216Z,22.53
2023-01-04T07:34:04.654Z,21.33
2023-01-04T07:36:07.448Z,19.57
2023-01-04T07:38:09.823Z,23.03
2023-01-04T07:40:12.462Z,20.43
2023-01-04T07:42:16.694Z,22.83
2023-01-04T07:44:18.864Z,22.20
2023-01-04T07:46:22.423Z,22.30
2023-01-04T07:48:24.704Z,20.67
2023-01-04T07:50:26.994Z,19.50
2023-01-04T07:52:29.196Z,22.20
2023-01-04T07:54:31.813Z,19.37
2023-01-04T07:56:33.884Z,79.13
2023-01-04T07:58:36.747Z,72.47
2023-01-04T08:00:38.980Z,88.43
2023-01-04T08:02:41.132Z,97.10
2023-01-04T08:04:46.272Z,56.10
2023-01-04T08:06:48.750Z,41.50
2023-01-04T08:08:50.977Z,26.80
2023-01-04T08:10:53.094Z,31.03
2023-01-04T08:13:03.555Z,22.50
2023-01-04T08:15:06.732Z,20.90
2023-01-04T08:17:10.419Z,22.90
2023-01-04T08:19:13.997Z,20.70
2023-01-04T08:21:16.498Z,21.50
2023-01-04T08:23:22.018Z,20.63
2023-01-04T08:25:24.454Z,25.17
2023-01-04T08:27:26.669Z,19.87
2023-01-04T08:29:34.611Z,20.77
2023-01-04T08:31:37.561Z,21.17
2023-01-04T08:33:40.309Z,20.10
2023-01-04T08:35:43.847Z,19.80
2023-01-04T08:37:46.192Z,21.27
2023-01-04T08:39:49.525Z,21.27
2023-01-04T08:42:02.129Z,21.90
2023-01-04T08:44:10.241Z,22.03
2023-01-04T08:46:14.204Z,23.90
2023-01-04T08:48:22.611Z,21.50
2023-01-04T08:50:26.566Z,28.67
2023-01-04T08:52:28.932Z,32.00
2023-01-04T08:54:31.162Z,30.67
2023-01-04T08:56:33.393Z,32.90
2023-01-04T08:58:37.559Z,31.67
2023-01-04T09:00:41.583Z,36.90
2023-01-04T09:02:43.952Z,37.50
2023-01-04T09:04:46.123Z,36.60
2023-01-04T09:06:49.026Z,43.40
2023-01-04T09:08:51.602Z,40.13
2023-01-04T09:10:56.284Z,37.97
2023-01-04T09:12:58.484Z,40.27
2023-01-04T09:15:00.723Z,39.87
2023-01-04T09:17:02.980Z,45.50
2023-01-04T09:19:06.888Z,41.57
2023-01-04T09:21:11.347Z,38.17
2023-01-04T09:23:13.670Z,39.17
2023-01-04T09:25:15.916Z,43.97
2023-01-04T09:27:20.496Z,54.50
2023-01-04T09:29:24.691Z,76.97
2023-01-04T09:31:28.655Z,89.80
2023-01-04T09:34:04.000Z,70.30
2023-01-04T09:36:00.639Z,55.87
2023-01-04T09:38:03.159Z,56.03
2023-01-04T09:40:05.742Z,52.90
2023-01-04T09:42:35.069Z,51.00
2023-01-04T09:45:21.879Z,53.20
2023-01-04T09:47:22.861Z,55.97
2023-01-04T09:49:32.958Z,58.83
2023-01-04T09:51:39.006Z,48.30
2023-01-04T09:53:46.640Z,49.40
2023-01-04T09:55:52.876Z,45.40
2023-01-04T09:58:34.316Z,42.20
2023-01-04T10:00:45.235Z,41.07
2023-01-04T10:03:02.322Z,43.33
2023-01-04T10:05:07.413Z,36.07
2023-01-04T10:07:21.714Z,31.57
2023-01-04T10:09:24.284Z,30.20
2023-01-04T10:11:28.880Z,31.63
2023-01-04T10:13:33.853Z,41.17
2023-01-04T10:15:51.905Z,40.60
2023-01-04T10:19:28.704Z,32.67
2023-01-04T10:21:31.492Z,44.57
2023-01-04T10:23:53.762Z,50.90
2023-01-04T10:26:18.188Z,66.70
2023-01-04T10:28:42.936Z,70.90
2023-01-04T10:30:55.021Z,79.40
2023-01-04T10:33:12.788Z,68.27
2023-01-04T10:35:21.827Z,88.60
2023-01-04T10:37:37.632Z,103.97
2023-01-04T10:39:40.552Z,99.43
2023-01-04T10:41:50.941Z,79.20
2023-01-04T10:44:10.837Z,54.50
2023-01-04T10:46:43.284Z,39.47
2023-01-04T10:48:55.718Z,37.60
2023-01-04T10:51:07.049Z,39.53
2023-01-04T10:53:23.815Z,42.50
2023-01-04T10:55:32.434Z,39.07
2023-01-04T10:57:41.195Z,37.50
2023-01-04T10:59:52.506Z,36.17
2023-01-04T11:02:01.070Z,36.20
2023-01-04T11:04:10.757Z,32.90
2023-01-04T11:06:34.143Z,41.87
2023-01-04T11:08:47.660Z,42.67
2023-01-04T11:11:06.247Z,37.70
2023-01-04T11:13:08.304Z,33.57
2023-01-04T11:15:10.843Z,40.80
2023-01-04T11:17:14.358Z,42.13
2023-01-04T11:19:16.728Z,49.53
2023-01-04T11:21:24.034Z,45.97
2023-01-04T11:23:26.116Z,63.43
2023-01-04T11:25:37.240Z,64.10
2023-01-04T11:27:51.010Z,56.03
2023-01-04T11:29:59.218Z,41.63
2023-01-04T11:32:07.130Z,43.33
2023-01-04T11:34:09.291Z,31.07
2023-01-04T11:36:31.228Z,28.63
2023-01-04T11:38:33.566Z,26.67
2023-01-04T11:40:36.056Z,31.03
2023-01-04T11:42:38.199Z,34.73
2023-01-04T11:44:42.104Z,32.77
2023-01-04T11:46:44.442Z,32.57
2023-01-04T11:48:48.744Z,30.20
2023-01-04T11:50:56.071Z,29.23
2023-01-04T11:52:58.031Z,26.43
2023-01-04T11:55:25.831Z,27.50
2023-01-04T11:57:28.066Z,24.00
2023-01-04T11:59:30.158Z,27.07
2023-01-04T12:09:31.427Z,25.47
2023-01-04T12:11:40.208Z,23.33
2023-01-04T12:13:42.331Z,22.93
2023-01-04T12:15:50.354Z,20.03
2023-01-04T12:18:22.649Z,18.93
2023-01-04T12:20:28.979Z,23.33
2023-01-04T12:22:39.221Z,20.27
2023-01-04T12:24:45.592Z,20.40
2023-01-04T12:26:48.854Z,19.20
2023-01-04T12:29:12.764Z,20.57
2023-01-04T12:31:21.458Z,21.70
2023-01-04T12:33:33.090Z,19.50
2023-01-04T12:36:04.989Z,19.20
2023-01-04T12:38:09.651Z,22.40
2023-01-04T12:40:45.556Z,21.10
2023-01-04T12:43:16.703Z,17.50
2023-01-04T12:45:22.159Z,16.27
2023-01-04T12:47:45.944Z,19.70
2023-01-04T12:49:56.843Z,14.30
2023-01-04T12:55:04.830Z,11.43
2023-01-04T12:57:16.856Z,12.03
2023-01-04T12:59:51.997Z,14.47
2023-01-04T13:02:16.854Z,22.67
2023-01-04T13:04:39.205Z,21.20
2023-01-04T13:06:46.098Z,27.40
2023-01-04T13:08:51.631Z,26.33
2023-01-04T13:10:55.954Z,26.27
2023-01-04T13:13:01.527Z,22.27
2023-01-04T13:15:17.595Z,25.20
2023-01-04T13:17:24.045Z,27.43
2023-01-04T13:19:28.888Z,32.83
2023-01-04T13:21:43.017Z,47.20
2023-01-04T13:24:00.860Z,79.33
2023-01-04T13:26:42.893Z,81.93
2023-01-04T13:28:45.337Z,54.67
2023-01-04T13:30:47.618Z,35.93
2023-01-04T13:33:24.397Z,37.33
2023-01-04T13:35:15.258Z,22.00
2023-01-04T13:37:28.335Z,23.30
2023-01-04T13:39:30.749Z,15.93
2023-01-04T13:41:33.123Z,21.97
2023-01-04T13:43:41.548Z,20.63
2023-01-04T13:45:50.049Z,19.43
2023-01-04T13:47:56.884Z,18.23
2023-01-04T13:50:01.741Z,17.73
2023-01-04T13:52:56.433Z,20.00
2023-01-04T13:55:23.228Z,25.17
2023-01-04T13:57:25.601Z,30.60
2023-01-04T13:59:27.666Z,35.67
2023-01-04T14:01:31.259Z,34.70
2023-01-04T14:03:41.808Z,38.97
2023-01-04T14:05:52.251Z,39.90
2023-01-04T14:07:54.666Z,36.40
2023-01-04T14:10:00.733Z,26.47
2023-01-04T14:12:14.824Z,25.37
2023-01-04T14:15:03.966Z,18.10
2023-01-04T14:17:34.396Z,17.00
2023-01-04T14:19:41.577Z,17.37
2023-01-04T14:21:43.680Z,13.33
2023-01-04T14:23:46.061Z,13.43
2023-01-04T14:25:56.496Z,14.10
2023-01-04T14:28:44.623Z,13.53
2023-01-04T14:31:15.003Z,14.70
2023-01-04T14:33:33.045Z,15.80
2023-01-04T14:35:38.337Z,15.13
2023-01-04T14:37:43.956Z,16.17
2023-01-04T14:39:46.137Z,13.47
2023-01-04T14:41:51.801Z,15.50
2023-01-04T14:44:09.713Z,14.37
2023-01-04T14:46:11.694Z,13.33
2023-01-04T14:48:16.135Z,14.27
2023-01-04T14:50:24.360Z,12.93
2023-01-04T14:52:26.440Z,12.57
2023-01-04T14:54:30.346Z,14.03
2023-01-04T14:56:33.529Z,11.53
2023-01-04T14:58:35.784Z,12.97
2023-01-04T15:00:38.183Z,13.63
2023-01-04T15:02:40.617Z,14.50
2023-01-04T15:04:42.909Z,16.07
2023-01-04T15:06:54.331Z,16.53
2023-01-04T15:08:56.315Z,14.57
2023-01-04T15:11:00.383Z,15.20
2023-01-04T15:13:04.489Z,15.00
2023-01-04T15:15:07.255Z,15.33
2023-01-04T15:17:10.464Z,14.33
2023-01-04T15:19:12.821Z,14.63
2023-01-04T15:21:15.327Z,12.90
2023-01-04T15:23:17.442Z,14.97
2023-01-04T15:25:19.542Z,14.07
2023-01-04T15:27:24.446Z,14.20
2023-01-04T15:29:31.104Z,12.30
2023-01-04T15:31:38.931Z,14.47
2023-01-04T15:33:42.116Z,13.47
2023-01-04T15:35:43.959Z,13.23
2023-01-04T15:37:47.008Z,13.77
2023-01-04T15:39:49.102Z,12.73
2023-01-04T15:42:09.820Z,14.23
2023-01-04T15:44:12.081Z,23.10
2023-01-04T15:46:16.996Z,37.83
2023-01-04T15:49:22.566Z,50.23
2023-01-04T15:51:25.026Z,72.50
2023-01-04T15:53:53.123Z,68.70
2023-01-04T15:55:55.495Z,58.80
2023-01-04T15:57:57.549Z,58.63
2023-01-04T15:59:59.672Z,45.53
2023-01-04T16:02:01.870Z,50.37
2023-01-04T16:04:06.801Z,37.17
2023-01-04T16:06:12.065Z,40.67
2023-01-04T16:08:14.351Z,32.73
2023-01-04T16:10:16.677Z,32.37
2023-01-04T16:12:37.663Z,27.57
2023-01-04T16:14:39.693Z,38.47
2023-01-04T16:16:41.640Z,43.13
2023-01-04T16:18:52.580Z,46.93
2023-01-04T16:20:54.496Z,45.50
2023-01-04T16:22:56.467Z,48.63
2023-01-04T16:25:13.734Z,38.30
2023-01-04T16:27:16.038Z,36.10
2023-01-04T16:29:19.711Z,37.97
2023-01-04T16:31:22.881Z,44.87
2023-01-04T16:33:25.074Z,44.40
2023-01-04T16:35:27.110Z,48.20
2023-01-04T16:37:30.670Z,33.73
2023-01-04T16:41:54.995Z,30.00
2023-01-04T16:44:01.151Z,28.30
2023-01-04T16:46:26.770Z,27.27
2023-01-04T16:48:28.806Z,25.07
2023-01-04T16:50:31.088Z,24.60
2023-01-04T16:52:33.069Z,27.37
2023-01-04T16:54:37.179Z,26.77
2023-01-04T16:56:40.137Z,20.40
2023-01-04T16:58:45.455Z,23.37
2023-01-04T17:00:47.515Z,29.10
2023-01-04T17:02:49.821Z,31.37
2023-01-04T17:04:57.144Z,28.83
2023-01-04T17:06:59.396Z,39.87
2023-01-04T17:09:03.488Z,58.47
2023-01-04T17:13:36.683Z,40.73
2023-01-04T17:15:43.757Z,39.03
2023-01-04T17:17:46.664Z,41.47
2023-01-04T17:19:48.555Z,39.53
2023-01-04T17:21:50.803Z,37.03
2023-01-04T17:23:56.407Z,31.97
2023-01-04T17:26:04.380Z,34.67
2023-01-04T17:28:06.789Z,36.83
2023-01-04T17:30:10.065Z,34.57
2023-01-04T17:32:12.278Z,37.97
2023-01-04T17:34:22.443Z,40.07
2023-01-04T17:36:25.817Z,35.00
2023-01-04T17:38:27.858Z,38.60
2023-01-04T17:40:30.218Z,33.97
2023-01-04T17:42:35.253Z,28.63
2023-01-04T17:44:37.272Z,30.47
2023-01-04T17:46:39.399Z,34.17
2023-01-04T17:48:42.024Z,37.00
2023-01-04T17:50:44.044Z,35.23
2023-01-04T17:52:47.896Z,34.80
2023-01-04T17:54:49.848Z,31.87
2023-01-04T17:56:52.180Z,29.83
2023-01-04T17:58:54.277Z,33.40
2023-01-04T18:00:56.758Z,34.50
2023-01-04T18:02:59.925Z,31.83
2023-01-04T18:05:02.979Z,31.33
2023-01-04T18:07:05.154Z,29.90
2023-01-04T18:09:09.204Z,32.77
2023-01-04T18:11:12.237Z,33.20
2023-01-04T18:13:14.718Z,45.33
2023-01-04T18:15:16.987Z,31.73
2023-01-04T18:17:18.941Z,49.23
2023-01-04T18:19:25.501Z,78.27
2023-01-04T18:21:31.082Z,69.70
2023-01-04T18:23:33.363Z,120.77
2023-01-04T18:25:35.343Z,71.03
2023-01-04T18:27:37.436Z,63.73
2023-01-04T18:29:39.378Z,64.67
2023-01-04T18:31:41.368Z,58.57
2023-01-04T18:33:43.922Z,50.23
2023-01-04T18:35:46.084Z,51.97
2023-01-04T18:37:48.025Z,64.53
2023-01-04T18:39:50.094Z,64.63
2023-01-04T18:41:52.112Z,55.57
2023-01-04T18:44:13.353Z,53.40
2023-01-04T18:46:17.591Z,46.30
2023-01-04T18:48:19.613Z,55.90
2023-01-04T18:50:22.046Z,53.77
2023-01-04T18:52:24.027Z,71.57
2023-01-04T18:54:28.886Z,65.03
2023-01-04T18:56:30.851Z,64.47
2023-01-04T18:58:33.206Z,62.70
2023-01-04T19:00:35.309Z,61.47
2023-01-04T19:02:37.719Z,47.27
2023-01-04T19:04:42.980Z,45.73
2023-01-04T19:06:45.187Z,48.80
2023-01-04T19:08:55.072Z,47.83
2023-01-04T19:10:58.948Z,47.27
2023-01-04T19:13:00.902Z,51.40
2023-01-04T19:15:06.760Z,45.23
2023-01-04T19:17:10.021Z,40.60
2023-01-04T19:19:12.132Z,34.77
2023-01-04T19:21:14.262Z,45.07
2023-01-04T19:23:16.352Z,45.63
2023-01-04T19:25:23.175Z,41.50
2023-01-04T19:27:28.377Z,37.70
2023-01-04T19:29:31.674Z,41.10
2023-01-04T19:31:34.831Z,47.70
2023-01-04T19:33:37.783Z,81.90
2023-01-04T19:35:48.472Z,80.73
2023-01-04T19:37:50.632Z,65.03
2023-01-04T19:39:52.777Z,138.93
2023-01-04T19:41:54.843Z,187.40
2023-01-04T19:43:56.907Z,139.77
2023-01-04T19:45:59.635Z,127.57
2023-01-04T19:48:01.758Z,148.27
2023-01-04T19:50:05.394Z,146.57
2023-01-04T19:52:07.754Z,152.53
2023-01-04T19:54:10.338Z,124.07
2023-01-04T19:56:14.099Z,88.30
2023-01-04T19:58:17.782Z,61.23
2023-01-04T20:00:20.039Z,86.57
2023-01-04T20:02:22.566Z,85.43
2023-01-04T20:04:27.718Z,106.47
2023-01-04T20:06:30.031Z,102.57
2023-01-04T20:08:32.480Z,85.73
2023-01-04T20:10:34.799Z,71.87
2023-01-04T20:12:36.852Z,57.90
2023-01-04T20:14:39.476Z,51.07
2023-01-04T20:16:41.640Z,54.77
2023-01-04T20:18:43.952Z,50.03
2023-01-04T20:20:47.408Z,53.43
2023-01-04T20:22:49.935Z,49.90
2023-01-04T20:24:52.110Z,46.63
2023-01-04T20:26:57.951Z,50.63
2023-01-04T20:28:59.947Z,41.33
2023-01-04T20:31:11.102Z,38.87
2023-01-04T20:33:13.263Z,32.77
2023-01-04T20:35:15.558Z,29.53
2023-01-04T20:37:18.094Z,33.10
2023-01-04T20:39:20.200Z,35.67
2023-01-04T20:41:23.867Z,28.07
2023-01-04T20:43:34.978Z,27.93
2023-01-04T20:45:48.051Z,24.60
2023-01-04T20:47:50.378Z,26.03
2023-01-04T20:49:52.888Z,29.97
2023-01-04T20:51:55.250Z,30.57
2023-01-04T20:54:01.847Z,30.53
2023-01-04T20:56:11.308Z,31.93
2023-01-04T20:58:17.394Z,31.10
2023-01-04T21:00:19.623Z,32.00
2023-01-04T21:02:21.829Z,29.73
2023-01-04T21:04:24.571Z,29.97
2023-01-04T21:06:26.649Z,30.27
2023-01-04T21:08:29.576Z,31.07
2023-01-04T21:10:31.676Z,30.33
2023-01-04T21:12:34.136Z,33.13
2023-01-04T21:14:38.319Z,42.93
2023-01-04T21:16:42.134Z,35.90
2023-01-04T21:18:44.434Z,37.70
2023-01-04T21:20:46.550Z,34.47
2023-01-04T21:22:48.798Z,34.80
2023-01-04T21:24:50.866Z,25.60
2023-01-04T21:26:53.005Z,28.07
2023-01-04T21:28:54.985Z,24.80
2023-01-04T21:30:57.077Z,28.73
2023-01-04T21:33:01.961Z,23.03
2023-01-04T21:35:04.625Z,25.30
2023-01-04T21:37:06.730Z,32.00
2023-01-04T21:39:09.150Z,26.33
2023-01-04T21:41:13.847Z,26.10
2023-01-04T21:43:41.400Z,24.03
2023-01-04T21:45:43.900Z,26.93
2023-01-04T21:47:46.648Z,27.87
2023-01-04T21:49:48.966Z,28.73
2023-01-04T21:51:50.993Z,29.03
2023-01-04T21:53:53.279Z,33.73
2023-01-04T21:56:06.699Z,27.83
2023-01-04T21:58:09.187Z,26.00
2023-01-04T22:00:11.694Z,28.43
2023-01-04T22:02:19.665Z,27.50
2023-01-04T22:04:21.835Z,26.67
2023-01-04T22:06:25.228Z,30.93
2023-01-04T22:08:27.487Z,27.33
2023-01-04T22:10:29.572Z,26.67
2023-01-04T22:12:31.494Z,27.13
2023-01-04T22:14:34.180Z,29.13
2023-01-04T22:16:36.326Z,24.10
2023-01-04T22:18:38.947Z,24.50
2023-01-04T22:20:41.064Z,24.87
2023-01-04T22:22:43.246Z,21.80
2023-01-04T22:24:45.251Z,21.00
2023-01-04T22:26:49.390Z,21.13
2023-01-04T22:28:51.636Z,23.23
2023-01-04T22:30:54.106Z,21.73
2023-01-04T22:32:56.329Z,22.17
2023-01-04T22:34:58.681Z,23.60
2023-01-04T22:37:00.793Z,20.47
2023-01-04T22:39:02.851Z,20.77
2023-01-04T22:41:12.313Z,24.40
2023-01-04T22:43:14.418Z,20.60
2023-01-04T22:45:16.400Z,21.20
2023-01-04T22:47:18.741Z,22.47
2023-01-04T22:49:20.723Z,19.53
2023-01-04T22:51:24.333Z,18.40
2023-01-04T22:53:26.449Z,22.43
2023-01-04T22:55:45.706Z,22.30
2023-01-04T22:57:50.919Z,21.17
2023-01-04T22:59:52.989Z,21.70
2023-01-04T23:01:55.201Z,19.30
2023-01-04T23:03:59.161Z,22.37
2023-01-04T23:06:05.495Z,22.63
2023-01-04T23:08:07.567Z,19.87
2023-01-04T23:10:09.938Z,19.47
2023-01-04T23:12:12.016Z,21.73
2023-01-04T23:14:16.668Z,28.70
2023-01-04T23:16:19.476Z,23.23
2023-01-04T23:18:21.544Z,23.70
2023-01-04T23:20:23.615Z,23.27
2023-01-04T23:22:25.812Z,34.10
2023-01-04T23:24:27.910Z,48.60
2023-01-04T23:26:31.596Z,32.83
2023-01-04T23:28:37.278Z,29.40
2023-01-04T23:30:40.296Z,32.63
2023-01-04T23:32:42.699Z,32.17
2023-01-04T23:34:44.826Z,64.57
2023-01-04T23:36:46.861Z,51.50
2023-01-04T23:38:54.656Z,46.93
2023-01-04T23:40:56.744Z,47.37
2023-01-04T23:42:59.643Z,30.27
2023-01-04T23:45:04.757Z,32.90
2023-01-04T23:47:07.633Z,32.23
2023-01-04T23:49:10.524Z,32.13
2023-01-04T23:51:13.288Z,25.80
2023-01-04T23:53:20.573Z,35.40
2023-01-04T23:55:22.837Z,42.27
2023-01-04T23:57:24.829Z,42.97
2023-01-04T23:59:27.265Z,49.57
